Time;durP1;ratioP1;P1;durP2;ratioP2;P2;SDS_P1;SDS_P2;PMS_P1;PMS_P2;Temp;Humidity;BMP_temperature;BMP_pressure;BME280_temperature;BME280_humidity;BME280_pressure;Samples;Min_cycle;Max_cycle;Signal;HPM_P1;HPM_P2
2022/04/25 00:00:51;;;;;;;75.70;13.18;;;;;;;10.37;100.00;96820.44;5002575;28;20038;-57
2022/04/25 00:03:16;;;;;;;73.78;13.77;;;;;;;10.21;100.00;96826.50;5004306;28;20029;-57
2022/04/25 00:05:42;;;;;;;86.28;18.20;;;;;;;9.92;100.00;96827.34;5003360;28;20041;-57
2022/04/25 00:08:07;;;;;;;65.65;17.17;;;;;;;9.87;100.00;96826.75;5005114;28;20112;-56
2022/04/25 00:10:33;;;;;;;81.80;17.38;;;;;;;10.11;100.00;96825.38;5002395;28;20030;-57
2022/04/25 00:12:58;;;;;;;72.15;12.95;;;;;;;10.49;100.00;96829.28;5003175;28;20041;-57
2022/04/25 00:15:27;;;;;;;93.85;15.90;;;;;;;10.10;100.00;96821.06;4999892;28;20388;-62
2022/04/25 00:17:52;;;;;;;79.55;17.90;;;;;;;9.75;100.00;96829.13;5003877;28;20037;-57
2022/04/25 00:20:17;;;;;;;63.58;13.75;;;;;;;9.95;100.00;96828.00;5005718;28;20026;-59
2022/04/25 00:22:45;;;;;;;91.25;18.15;;;;;;;9.87;100.00;96826.75;5002109;28;20401;-57
2022/04/25 00:25:10;;;;;;;75.07;17.42;;;;;;;9.89;100.00;96824.91;5004635;28;20030;-56
2022/04/25 00:27:36;;;;;;;71.38;15.30;;;;;;;10.02;100.00;96841.53;5002621;28;20036;-56
2022/04/25 00:30:01;;;;;;;88.57;18.45;;;;;;;9.61;100.00;96834.28;5000657;28;20026;-57
2022/04/25 00:32:27;;;;;;;86.30;18.90;;;;;;;9.56;100.00;96844.13;5001774;28;20107;-57
2022/04/25 00:34:52;;;;;;;106.05;19.27;;;;;;;9.75;100.00;96842.16;5002442;28;20099;-56
2022/04/25 00:37:17;;;;;;;74.25;18.95;;;;;;;9.48;100.00;96841.91;5003310;28;20185;-57
2022/04/25 00:39:43;;;;;;;103.43;19.42;;;;;;;9.65;100.00;96848.81;4999881;28;20022;-57
2022/04/25 00:42:08;;;;;;;89.78;18.83;;;;;;;9.69;100.00;96849.50;5001168;28;20038;-57
2022/04/25 00:44:33;;;;;;;106.97;17.75;;;;;;;9.65;100.00;96843.63;5002418;28;20112;-57
2022/04/25 00:47:00;;;;;;;121.10;20.58;;;;;;;9.64;100.00;96844.53;5002091;28;20078;-58
2022/04/25 00:49:25;;;;;;;105.35;19.25;;;;;;;9.69;100.00;96850.31;5003295;28;20407;-57
2022/04/25 00:51:51;;;;;;;97.68;15.85;;;;;;;9.78;100.00;96852.41;5001692;28;20034;-56
2022/04/25 00:54:19;;;;;;;91.68;19.80;;;;;;;9.75;100.00;96844.75;5000487;28;20489;-56
2022/04/25 00:56:46;;;;;;;96.75;19.13;;;;;;;9.84;100.00;96848.63;5001531;28;20492;-56
2022/04/25 00:59:14;;;;;;;92.65;20.40;;;;;;;9.37;100.00;96847.72;5001843;28;20076;-56
2022/04/25 01:01:40;;;;;;;74.47;16.23;;;;;;;9.84;100.00;96846.00;5002055;28;20046;-56
2022/04/25 01:04:05;;;;;;;71.72;15.98;;;;;;;9.77;100.00;96842.91;5002203;28;20080;-58
2022/04/25 01:06:30;;;;;;;91.03;19.40;;;;;;;9.40;100.00;96844.94;5002620;28;20108;-57
2022/04/25 01:08:56;;;;;;;95.18;16.15;;;;;;;9.79;100.00;96843.66;5004519;28;20026;-58
2022/04/25 01:11:23;;;;;;;87.03;18.92;;;;;;;9.31;100.00;96850.66;5003215;28;20060;-58
2022/04/25 01:13:48;;;;;;;88.60;17.92;;;;;;;9.44;100.00;96851.66;5002452;28;20109;-57
2022/04/25 01:16:13;;;;;;;81.82;18.10;;;;;;;9.52;100.00;96848.66;5000771;28;20042;-57
2022/04/25 01:18:38;;;;;;;84.47;17.15;;;;;;;9.81;100.00;96849.63;5004043;28;20100;-57
2022/04/25 01:21:08;;;;;;;98.60;18.80;;;;;;;9.32;100.00;96852.34;5004809;28;20053;-58
2022/04/25 01:29:02;;;;;;;80.43;16.85;;;;;;;9.23;100.00;96858.06;5000815;28;20068;-56
2022/04/25 01:31:27;;;;;;;69.20;15.70;;;;;;;9.38;100.00;96861.59;5002026;28;20116;-57
2022/04/25 01:33:53;;;;;;;74.60;16.90;;;;;;;9.06;100.00;96861.53;4999965;28;20076;-56
2022/04/25 01:36:25;;;;;;;73.43;15.82;;;;;;;9.31;100.00;96871.47;5000565;28;20748;-56
2022/04/25 01:38:54;;;;;;;80.55;12.27;;;;;;;9.43;100.00;96880.41;5000182;28;20554;-56
2022/04/25 01:41:20;;;;;;;88.10;16.08;;;;;;;9.28;100.00;96876.84;5000883;28;20042;-55
2022/04/25 01:43:45;;;;;;;72.22;15.43;;;;;;;9.36;100.00;96879.88;5001893;28;20030;-56
2022/04/25 01:46:11;;;;;;;94.47;16.50;;;;;;;9.16;100.00;96877.50;5000885;28;20042;-56
2022/04/25 01:48:36;;;;;;;80.35;16.17;;;;;;;9.23;100.00;96879.69;5002887;28;20049;-56
2022/04/25 01:51:02;;;;;;;84.75;14.88;;;;;;;9.44;100.00;96879.47;5001812;28;20108;-56
2022/04/25 01:53:28;;;;;;;78.72;15.63;;;;;;;9.24;100.00;96875.31;4999571;28;20071;-56
2022/04/25 01:55:54;;;;;;;66.93;13.18;;;;;;;9.47;100.00;96876.69;5002111;28;20052;-57
2022/04/25 01:58:19;;;;;;;79.63;15.90;;;;;;;9.19;100.00;96882.53;5001843;28;20034;-56
2022/04/25 02:00:45;;;;;;;84.00;15.43;;;;;;;9.41;100.00;96877.88;5001657;28;20046;-56
2022/04/25 02:03:11;;;;;;;76.50;14.57;;;;;;;9.42;100.00;96879.53;5002610;28;20112;-56
2022/04/25 02:05:36;;;;;;;78.57;14.25;;;;;;;9.24;100.00;96891.78;5000440;28;20464;-56
2022/04/25 02:08:02;;;;;;;81.25;14.05;;;;;;;9.45;100.00;96887.19;5001835;28;20025;-56
2022/04/25 02:10:28;;;;;;;102.07;15.55;;;;;;;9.19;100.00;96887.72;5002164;28;20034;-55
2022/04/25 02:12:53;;;;;;;74.40;14.35;;;;;;;9.18;100.00;96894.69;5001273;28;20037;-56
2022/04/25 02:15:19;;;;;;;87.40;13.20;;;;;;;9.65;100.00;96885.28;4999374;28;20029;-56
2022/04/25 02:17:45;;;;;;;88.28;15.05;;;;;;;9.33;100.00;96880.03;5001848;28;20026;-56
2022/04/25 02:20:14;;;;;;;66.47;10.90;;;;;;;9.43;100.00;96886.44;5002320;28;20038;-58
2022/04/25 02:22:40;;;;;;;67.80;12.55;;;;;;;9.29;100.00;96883.72;5002102;28;20799;-58
2022/04/25 02:25:06;;;;;;;67.50;11.77;;;;;;;9.17;100.00;96890.44;5001362;28;20026;-56
2022/04/25 02:27:31;;;;;;;87.53;14.30;;;;;;;9.11;100.00;96898.56;4999144;28;20095;-56
2022/04/25 02:29:59;;;;;;;54.92;9.98;;;;;;;9.41;100.00;96893.47;5000251;28;20026;-57
2022/04/25 02:32:27;;;;;;;72.47;12.48;;;;;;;9.49;100.00;96902.66;5002150;28;20157;-56
2022/04/25 02:34:54;;;;;;;92.35;14.57;;;;;;;9.33;100.00;96895.66;5000726;28;20021;-55
2022/04/25 02:37:23;;;;;;;72.10;13.55;;;;;;;9.25;100.00;96903.03;5001436;28;20828;-57
2022/04/25 02:39:49;;;;;;;72.97;11.60;;;;;;;9.69;100.00;96898.97;4988764;28;20535;-57
2022/04/25 02:42:14;;;;;;;71.18;13.63;;;;;;;9.27;100.00;96895.97;4998695;28;20125;-56
2022/04/25 02:44:39;;;;;;;117.30;15.18;;;;;;;9.14;100.00;96913.16;5000624;28;20124;-56
2022/04/25 02:47:05;;;;;;;87.07;14.98;;;;;;;8.98;100.00;96910.53;5001403;28;20042;-57
2022/04/25 02:49:30;;;;;;;76.88;13.60;;;;;;;9.02;100.00;96907.69;5000647;28;20021;-58
2022/04/25 02:51:56;;;;;;;77.32;13.27;;;;;;;9.04;100.00;96911.06;4999813;28;20132;-56
2022/04/25 02:54:21;;;;;;;75.95;13.10;;;;;;;9.09;100.00;96912.56;5001004;28;20030;-58
2022/04/25 02:56:47;;;;;;;80.60;13.90;;;;;;;8.82;100.00;96915.66;5002558;28;20038;-57
2022/04/25 02:59:12;;;;;;;81.22;13.57;;;;;;;8.95;100.00;96915.88;5003232;28;20025;-58
2022/04/25 03:01:38;;;;;;;67.00;13.40;;;;;;;9.03;100.00;96914.56;5004314;28;20126;-56
2022/04/25 03:04:03;;;;;;;71.72;12.52;;;;;;;8.87;100.00;96917.09;5000508;28;20036;-56
2022/04/25 03:06:29;;;;;;;73.28;13.85;;;;;;;8.69;100.00;96925.84;5000632;28;20938;-58
2022/04/25 03:08:54;;;;;;;79.95;13.40;;;;;;;8.89;100.00;96924.84;5000390;28;20112;-57
2022/04/25 03:11:19;;;;;;;53.17;12.73;;;;;;;8.70;100.00;96924.09;4998835;28;20432;-56
2022/04/25 03:13:45;;;;;;;71.15;11.43;;;;;;;8.92;100.00;96926.44;5000273;28;20538;-56
2022/04/25 03:16:10;;;;;;;70.88;12.77;;;;;;;8.86;100.00;96932.81;5001671;28;20034;-57
2022/04/25 03:18:36;;;;;;;78.13;13.57;;;;;;;8.73;100.00;96943.00;5001393;28;20396;-56
2022/04/25 03:21:02;;;;;;;107.80;15.43;;;;;;;8.75;100.00;96935.94;4997606;28;20929;-56
2022/04/25 03:23:28;;;;;;;62.85;12.27;;;;;;;8.65;100.00;96939.91;4997078;28;20034;-56
2022/04/25 03:25:54;;;;;;;62.95;12.80;;;;;;;8.95;100.00;96932.34;4999508;28;20046;-58
2022/04/25 03:28:20;;;;;;;71.53;13.77;;;;;;;8.61;100.00;96941.84;5000015;28;20037;-55
2022/04/25 03:30:46;;;;;;;73.82;12.93;;;;;;;8.76;100.00;96944.59;4999921;28;20543;-57
2022/04/25 03:33:12;;;;;;;87.28;14.13;;;;;;;8.68;100.00;96951.00;5001125;28;20594;-56
2022/04/25 03:35:41;;;;;;;81.88;14.20;;;;;;;8.84;100.00;96950.22;4999072;28;20049;-56
2022/04/25 03:38:08;;;;;;;74.00;13.10;;;;;;;8.74;100.00;96954.22;4999800;28;20030;-55
2022/04/25 03:40:37;;;;;;;68.85;13.18;;;;;;;8.99;100.00;96954.66;4999713;28;20034;-55
2022/04/25 03:43:07;;;;;;;73.78;13.23;;;;;;;8.63;100.00;96957.34;5001977;28;20103;-55
2022/04/25 03:45:33;;;;;;;80.82;12.98;;;;;;;8.93;100.00;96962.75;4999417;28;20034;-55
2022/04/25 03:47:58;;;;;;;87.53;14.00;;;;;;;9.20;100.00;96955.28;5002299;28;20022;-54
2022/04/25 03:50:23;;;;;;;80.53;13.73;;;;;;;8.89;100.00;96948.22;4998756;28;20040;-55
2022/04/25 03:52:49;;;;;;;75.97;13.55;;;;;;;8.73;100.00;96953.38;5001173;28;20111;-55
2022/04/25 03:58:02;;;;;;;72.10;13.10;;;;;;;8.74;100.00;96965.47;5000679;28;20024;-58
2022/04/25 04:00:28;;;;;;;79.65;14.88;;;;;;;8.67;100.00;96967.53;4997368;28;20037;-57
2022/04/25 04:02:53;;;;;;;52.55;11.35;;;;;;;8.88;100.00;96964.78;5001457;28;20022;-57
2022/04/25 04:05:20;;;;;;;77.03;13.07;;;;;;;8.83;100.00;96980.59;5003066;28;20258;-58
2022/04/25 04:07:46;;;;;;;68.50;12.05;;;;;;;9.01;100.00;96971.03;5005408;28;20026;-58
2022/04/25 04:10:12;;;;;;;78.47;13.32;;;;;;;9.04;100.00;96968.28;5003022;28;20025;-58
2022/04/25 04:12:38;;;;;;;74.43;13.70;;;;;;;8.81;100.00;96976.41;5004081;28;20040;-57
2022/04/25 04:15:06;;;;;;;51.63;10.48;;;;;;;8.94;100.00;96980.06;5003819;28;20030;-62
2022/04/25 04:17:35;;;;;;;79.68;14.07;;;;;;;8.82;100.00;96988.47;5003075;28;20026;-57
2022/04/25 04:20:02;;;;;;;71.30;12.57;;;;;;;8.95;100.00;96984.34;5006276;28;20030;-57
2022/04/25 04:22:30;;;;;;;64.78;13.80;;;;;;;9.09;100.00;96990.59;4983080;28;20038;-57
2022/04/25 04:25:05;;;;;;;103.80;15.55;;;;;;;9.05;100.00;96985.53;4978144;28;20087;-58
2022/04/25 04:27:31;;;;;;;78.05;13.65;;;;;;;9.24;100.00;96995.00;5002955;28;20038;-58
2022/04/25 04:29:58;;;;;;;69.03;13.75;;;;;;;8.93;100.00;97001.75;5002708;28;20033;-57
2022/04/25 04:32:29;;;;;;;65.63;13.10;;;;;;;9.03;100.00;97008.19;5005318;28;20761;-59
2022/04/25 04:34:56;;;;;;;96.60;12.63;;;;;;;9.31;100.00;97011.16;5005379;28;20038;-56
2022/04/25 04:37:21;;;;;;;78.30;14.23;;;;;;;9.03;100.00;97018.59;5003729;28;20038;-55
2022/04/25 04:39:47;;;;;;;73.82;14.13;;;;;;;8.88;100.00;97034.97;5003175;28;20060;-59
2022/04/25 04:42:12;;;;;;;62.80;11.13;;;;;;;9.33;100.00;97022.31;5001289;28;20042;-58
2022/04/25 04:44:37;;;;;;;73.43;13.95;;;;;;;9.24;100.00;97027.09;5003036;28;20026;-59
2022/04/25 04:47:03;;;;;;;61.13;13.32;;;;;;;9.10;100.00;97031.28;5001246;28;20041;-56
2022/04/25 04:49:29;;;;;;;75.53;11.50;;;;;;;9.62;100.00;97026.00;5003038;28;20026;-55
2022/04/25 04:51:54;;;;;;;75.05;13.07;;;;;;;9.29;100.00;97039.84;5003497;28;20053;-59
2022/04/25 04:54:20;;;;;;;67.25;14.30;;;;;;;9.00;100.00;97038.72;5002655;28;20026;-58
2022/04/25 04:56:45;;;;;;;81.32;14.52;;;;;;;9.16;100.00;97049.22;5002737;28;20026;-57
2022/04/25 04:59:11;;;;;;;69.65;14.10;;;;;;;9.00;100.00;97047.34;5003240;28;20034;-57
2022/04/25 05:01:36;;;;;;;80.25;14.48;;;;;;;9.02;100.00;97048.16;5000571;28;20117;-57
2022/04/25 05:04:01;;;;;;;79.00;14.48;;;;;;;9.20;100.00;97055.94;5002633;28;20140;-58
2022/04/25 05:06:27;;;;;;;74.30;14.73;;;;;;;8.91;100.00;97058.22;5001417;28;20095;-56
2022/04/25 05:08:54;;;;;;;78.68;13.82;;;;;;;8.90;100.00;97066.94;5002489;28;20030;-57
2022/04/25 05:11:19;;;;;;;61.50;14.00;;;;;;;9.02;100.00;97065.50;5002832;28;20574;-57
2022/04/25 05:13:45;;;;;;;51.03;13.70;;;;;;;9.22;100.00;97067.94;5001438;28;20796;-58
2022/04/25 05:16:10;;;;;;;96.05;14.73;;;;;;;9.28;100.00;97069.38;5001221;28;20030;-57
2022/04/25 05:18:36;;;;;;;70.97;14.48;;;;;;;9.41;100.00;97073.06;4996437;28;20061;-56
2022/04/25 05:21:02;;;;;;;95.22;15.68;;;;;;;9.09;100.00;97071.25;4996973;28;20526;-57
2022/04/25 05:23:28;;;;;;;74.40;13.65;;;;;;;9.22;100.00;97078.34;4997456;28;20030;-57
2022/04/25 05:25:54;;;;;;;76.82;14.13;;;;;;;9.22;100.00;97087.91;5001013;28;20068;-57
2022/04/25 05:28:23;;;;;;;67.75;13.35;;;;;;;9.20;100.00;97085.38;5002185;28;20057;-56
2022/04/25 05:30:49;;;;;;;79.93;15.02;;;;;;;8.95;100.00;97088.38;5000776;28;20773;-56
2022/04/25 05:33:18;;;;;;;67.47;14.27;;;;;;;9.07;100.00;97085.16;4997175;28;20052;-56
2022/04/25 05:35:44;;;;;;;91.13;14.63;;;;;;;9.19;100.00;97098.47;5002102;28;20036;-56
2022/04/25 05:38:11;;;;;;;73.85;14.05;;;;;;;9.30;100.00;97092.72;5000758;28;20022;-57
2022/04/25 05:40:38;;;;;;;77.20;14.85;;;;;;;8.83;100.00;97101.97;5003458;28;20099;-57
2022/04/25 05:43:05;;;;;;;69.50;14.80;;;;;;;8.71;100.00;97103.38;5004878;28;20026;-56
2022/04/25 05:45:31;;;;;;;74.55;14.90;;;;;;;8.65;100.00;97112.31;5000854;28;20088;-57
2022/04/25 05:47:57;;;;;;;82.10;15.35;;;;;;;8.74;100.00;97111.03;5001593;28;20916;-56
2022/04/25 05:53:08;;;;;;;104.28;16.05;;;;;;;9.20;100.00;97113.16;4997859;28;20932;-56
2022/04/25 05:55:33;;;;;;;75.97;12.85;;;;;;;9.57;100.00;97124.31;5000921;28;20477;-56
2022/04/25 05:58:03;;;;;;;75.65;11.07;;;;;;;9.92;100.00;97121.66;4991825;28;20084;-58
2022/04/25 06:00:30;;;;;;;79.22;12.20;;;;;;;9.83;100.00;97118.63;5003157;28;20034;-56
2022/04/25 06:02:57;;;;;;;76.47;15.02;;;;;;;9.67;100.00;97133.38;5002103;28;20034;-57
2022/04/25 06:05:23;;;;;;;74.53;15.13;;;;;;;9.96;100.00;97128.38;5001406;28;20774;-57
2022/04/25 06:07:49;;;;;;;73.85;14.95;;;;;;;9.70;100.00;97137.56;5003392;28;20389;-55
2022/04/25 06:10:17;;;;;;;85.25;15.77;;;;;;;9.72;100.00;97141.75;5001861;28;20474;-55
2022/04/25 06:12:45;;;;;;;83.22;13.55;;;;;;;9.93;100.00;97139.00;5001359;28;20709;-56
2022/04/25 06:15:10;;;;;;;74.57;13.77;;;;;;;9.99;100.00;97134.28;5017035;28;20408;-54
2022/04/25 06:17:37;;;;;;;78.65;14.30;;;;;;;9.98;100.00;97131.75;4999582;28;20645;-56
2022/04/25 06:20:04;;;;;;;71.05;14.05;;;;;;;9.77;100.00;97152.78;5001024;28;20022;-56
2022/04/25 06:22:29;;;;;;;62.00;9.38;;;;;;;10.31;100.00;97154.38;5001751;28;20038;-56
2022/04/25 06:24:54;;;;;;;103.22;14.55;;;;;;;10.15;100.00;97142.16;5002243;28;20088;-57
2022/04/25 06:27:20;;;;;;;69.35;13.82;;;;;;;10.11;100.00;97152.78;5001252;28;20065;-55
2022/04/25 06:29:46;;;;;;;82.05;13.70;;;;;;;10.23;100.00;97155.59;5001054;28;20692;-56
2022/04/25 06:32:12;;;;;;;76.60;13.95;;;;;;;10.16;100.00;97149.06;5000501;28;20045;-56
2022/04/25 06:34:38;;;;;;;79.28;13.95;;;;;;;10.06;100.00;97166.06;5006266;28;20049;-55
2022/04/25 06:37:04;;;;;;;69.57;13.23;;;;;;;10.21;100.00;97165.25;4996754;28;20030;-56
2022/04/25 06:39:29;;;;;;;66.93;11.82;;;;;;;10.41;100.00;97164.25;5003030;28;20032;-56
2022/04/25 06:41:55;;;;;;;88.35;13.90;;;;;;;10.66;100.00;97168.16;5001678;28;20585;-56
2022/04/25 06:44:20;;;;;;;82.53;11.32;;;;;;;10.78;100.00;97170.06;5003088;28;20032;-57
2022/04/25 06:46:45;;;;;;;83.32;12.10;;;;;;;11.09;100.00;97167.53;5001551;28;20045;-56
2022/04/25 06:49:20;;;;;;;61.97;11.18;;;;;;;10.98;100.00;97166.34;5000782;28;20033;-56
2022/04/25 06:51:50;;;;;;;65.13;10.60;;;;;;;10.89;100.00;97166.03;4999715;28;20044;-57
2022/04/25 06:54:16;;;;;;;59.05;11.23;;;;;;;10.99;100.00;97167.19;5001188;28;20036;-55
2022/04/25 06:56:42;;;;;;;67.18;13.25;;;;;;;10.90;100.00;97178.13;4998000;28;20059;-55
2022/04/25 06:59:07;;;;;;;66.90;13.13;;;;;;;10.97;100.00;97174.25;4997734;28;20088;-56
2022/04/25 07:01:33;;;;;;;71.30;13.60;;;;;;;10.87;100.00;97181.75;4999335;28;20164;-55
2022/04/25 07:04:01;;;;;;;76.38;12.50;;;;;;;11.06;100.00;97178.13;4999540;28;20088;-56
2022/04/25 07:06:27;;;;;;;66.82;13.02;;;;;;;10.70;100.00;97179.25;4997416;28;20049;-56
2022/04/25 07:08:52;;;;;;;65.75;12.95;;;;;;;10.95;100.00;97186.53;4999905;28;20025;-55
2022/04/25 07:11:18;;;;;;;58.67;12.05;;;;;;;11.09;100.00;97181.41;4999534;28;20042;-56
2022/04/25 07:13:45;;;;;;;79.80;10.77;;;;;;;11.16;100.00;97185.34;5000823;28;20030;-56
2022/04/25 07:16:12;;;;;;;76.28;11.80;;;;;;;11.27;100.00;97186.53;5002114;28;20084;-56
2022/04/25 07:18:38;;;;;;;63.35;10.27;;;;;;;12.43;100.00;97181.44;5003252;28;20018;-56
2022/04/25 07:29:23;;;;;;;78.22;11.20;;;;;;;12.10;100.00;97177.31;5001776;28;20091;-55
2022/04/25 07:31:50;;;;;;;69.68;13.07;;;;;;;11.67;100.00;97189.44;5001415;28;20116;-58
2022/04/25 07:34:17;;;;;;;75.63;11.43;;;;;;;11.73;100.00;97197.75;4999926;28;20112;-57
2022/04/25 07:36:43;;;;;;;74.82;12.45;;;;;;;11.52;100.00;97193.78;5001711;28;20042;-56
2022/04/25 07:39:08;;;;;;;76.43;11.15;;;;;;;11.71;100.00;97189.19;5001293;28;20541;-56
2022/04/25 07:41:33;;;;;;;49.25;8.45;;;;;;;12.79;100.00;97195.78;5005806;28;20057;-55
2022/04/25 07:43:59;;;;;;;67.03;10.75;;;;;;;12.12;100.00;97196.34;5004730;28;20084;-56
2022/04/25 07:46:26;;;;;;;59.55;11.45;;;;;;;11.65;100.00;97201.75;5004909;28;20563;-56
2022/04/25 07:48:52;;;;;;;63.80;11.07;;;;;;;11.74;100.00;97202.06;5005297;28;20036;-56
2022/04/25 07:51:17;;;;;;;73.22;11.98;;;;;;;11.34;100.00;97204.38;5003783;28;20041;-56
2022/04/25 07:53:43;;;;;;;76.97;12.30;;;;;;;11.75;100.00;97214.19;5002770;28;20551;-56
2022/04/25 07:56:08;;;;;;;66.22;11.65;;;;;;;11.67;100.00;97216.41;5004331;28;20042;-56
2022/04/25 07:58:34;;;;;;;82.38;12.25;;;;;;;11.65;100.00;97220.88;5005414;28;20121;-57
2022/04/25 08:01:00;;;;;;;57.92;9.85;;;;;;;12.11;100.00;97220.84;5005443;28;20117;-56
2022/04/25 08:03:26;;;;;;;72.63;11.82;;;;;;;11.91;100.00;97223.75;5003304;28;20028;-56
2022/04/25 08:05:52;;;;;;;73.20;12.27;;;;;;;11.65;100.00;97225.25;5003352;28;20070;-56
2022/04/25 08:08:17;;;;;;;61.05;10.80;;;;;;;11.82;100.00;97226.88;5004733;28;20793;-58
2022/04/25 08:10:43;;;;;;;74.47;11.68;;;;;;;12.31;100.00;97227.47;5003703;28;20022;-58
2022/04/25 08:18:41;;;;;;;78.32;11.50;;;;;;;12.21;100.00;97241.19;4993318;28;20516;-55
2022/04/25 08:21:06;;;;;;;58.38;8.45;;;;;;;13.24;100.00;97240.91;5005898;28;20045;-56
2022/04/25 08:23:32;;;;;;;50.50;8.70;;;;;;;13.00;100.00;97240.69;4991953;28;20068;-56
2022/04/25 08:25:57;;;;;;;59.10;9.57;;;;;;;12.95;100.00;97244.53;5003227;28;20836;-56
2022/04/25 08:28:25;;;;;;;76.50;10.73;;;;;;;13.79;100.00;97248.78;5004912;28;20034;-56
2022/04/25 08:30:52;;;;;;;65.72;8.55;;;;;;;14.27;100.00;97247.28;5003468;28;20037;-57
2022/04/25 08:33:17;;;;;;;49.55;6.65;;;;;;;15.26;100.00;97243.06;5004837;28;20723;-56
2022/04/25 08:35:42;;;;;;;57.70;9.38;;;;;;;13.50;100.00;97249.72;5001279;28;20036;-57
2022/04/25 08:38:07;;;;;;;74.50;9.88;;;;;;;13.26;100.00;97252.13;5001582;28;20022;-58
2022/04/25 08:40:33;;;;;;;61.42;10.30;;;;;;;12.93;100.00;97255.94;5003074;28;20040;-57
2022/04/25 08:43:01;;;;;;;66.95;9.98;;;;;;;12.98;100.00;97262.69;5004678;28;20030;-57
2022/04/25 08:45:28;;;;;;;64.35;10.52;;;;;;;13.45;100.00;97261.44;5003816;28;20117;-57
2022/04/25 08:47:58;;;;;;;57.47;9.60;;;;;;;12.46;100.00;97262.31;5002350;28;20081;-56
2022/04/25 08:50:25;;;;;;;62.95;10.15;;;;;;;13.64;100.00;97263.75;5002278;28;20038;-56
2022/04/25 08:52:52;;;;;;;63.00;9.98;;;;;;;14.17;100.00;97259.34;5004421;28;20050;-57
2022/04/25 08:55:17;;;;;;;67.30;10.52;;;;;;;13.67;100.00;97272.25;5003730;28;20030;-56
2022/04/25 08:57:45;;;;;;;70.45;10.85;;;;;;;14.15;100.00;97271.72;5003206;28;20021;-57
2022/04/25 09:00:12;;;;;;;77.10;10.38;;;;;;;15.17;100.00;97260.31;5002629;28;20025;-58
2022/04/25 09:02:40;;;;;;;63.72;8.95;;;;;;;15.42;100.00;97262.03;5003133;28;20033;-57
2022/04/25 09:05:06;;;;;;;77.63;9.93;;;;;;;15.57;100.00;97253.97;5002402;28;20659;-56
2022/04/25 09:07:35;;;;;;;97.82;11.05;;;;;;;16.13;100.00;97258.63;5003680;28;20126;-57
2022/04/25 09:10:00;;;;;;;55.17;8.52;;;;;;;16.08;100.00;97260.75;5001481;28;20030;-56
2022/04/25 09:12:26;;;;;;;52.30;8.50;;;;;;;15.74;100.00;97268.53;5004475;28;20053;-57
2022/04/25 09:14:51;;;;;;;85.65;9.40;;;;;;;17.31;100.00;97264.44;5001639;28;20084;-57
2022/04/25 09:17:17;;;;;;;73.53;8.82;;;;;;;16.27;100.00;97261.06;5004157;28;20506;-57
2022/04/25 09:19:43;;;;;;;60.40;8.15;;;;;;;16.41;100.00;97256.53;5000816;28;20460;-54
2022/04/25 09:22:10;;;;;;;63.70;7.97;;;;;;;17.46;100.00;97265.00;5002194;28;20322;-56
2022/04/25 09:24:45;;;;;;;47.97;7.60;;;;;;;16.89;100.00;97256.34;5004203;28;20030;-57
2022/04/25 09:27:12;;;;;;;63.58;8.02;;;;;;;15.81;100.00;97261.88;5001081;28;20076;-57
2022/04/25 09:29:38;;;;;;;60.10;7.10;;;;;;;17.61;100.00;97262.91;5004575;28;20119;-56
2022/04/25 09:32:06;;;;;;;55.22;7.10;;;;;;;16.73;100.00;97265.41;5001797;28;20123;-56
2022/04/25 09:37:17;;;;;;;63.78;8.02;;;;;;;16.61;100.00;97279.53;4998888;28;20048;-56
2022/04/25 09:39:43;;;;;;;59.67;8.13;;;;;;;15.37;100.00;97276.44;5002558;28;20610;-57
2022/04/25 09:42:09;;;;;;;50.35;6.10;;;;;;;16.83;100.00;97267.38;5002675;28;20034;-57
2022/04/25 09:45:00;;;;;;;64.53;8.15;;;;;;;16.22;100.00;97278.97;5000060;28;20033;-56
2022/04/25 09:47:29;;;;;;;68.72;7.93;;;;;;;16.39;100.00;97280.31;5001999;28;20046;-57
2022/04/25 09:50:07;;;;;;;41.63;6.93;;;;;;;15.25;100.00;97283.41;5002694;28;20026;-59
2022/04/25 09:52:36;;;;;;;71.35;8.13;;;;;;;14.49;100.00;97284.34;5001733;28;20065;-57
2022/04/25 09:55:14;;;;;;;53.92;6.97;;;;;;;14.72;100.00;97286.25;5000206;28;20651;-56
2022/04/25 09:57:39;;;;;;;72.80;7.63;;;;;;;16.02;100.00;97288.38;5001918;28;20034;-56
2022/04/25 10:00:07;;;;;;;57.60;7.88;;;;;;;14.54;100.00;97293.56;5001321;28;20029;-57
2022/04/25 10:02:38;;;;;;;70.88;8.15;;;;;;;14.73;100.00;97293.16;5002061;28;20041;-57
2022/04/25 10:05:15;;;;;;;67.40;8.25;;;;;;;14.59;100.00;97296.75;5002498;28;20030;-56
2022/04/25 10:07:42;;;;;;;66.45;7.53;;;;;;;15.34;100.00;97295.06;4998982;28;20041;-57
2022/04/25 10:10:10;;;;;;;82.57;8.30;;;;;;;15.27;100.00;97297.28;5000241;28;20075;-57
2022/04/25 10:12:36;;;;;;;63.15;8.20;;;;;;;15.26;100.00;97289.53;4999728;28;20138;-59
2022/04/25 10:15:03;;;;;;;51.20;6.70;;;;;;;15.04;100.00;97301.53;5000416;28;20025;-57
2022/04/25 10:17:30;;;;;;;61.03;8.25;;;;;;;14.23;100.00;97300.06;4999601;28;20184;-56
2022/04/25 10:19:57;;;;;;;69.85;8.45;;;;;;;14.27;100.00;97306.78;5001880;28;20037;-56
2022/04/25 10:22:23;;;;;;;62.78;7.68;;;;;;;14.06;100.00;97306.41;5001021;28;20038;-57
2022/04/25 10:24:49;;;;;;;90.55;10.00;;;;;;;12.88;100.00;97306.88;5000126;28;20029;-56
2022/04/25 10:27:17;;;;;;;59.88;8.57;;;;;;;13.34;100.00;97311.91;5004320;28;20038;-57
2022/04/25 10:29:47;;;;;;;61.38;8.18;;;;;;;13.33;100.00;97306.78;5000734;28;20128;-57
2022/04/25 10:32:17;;;;;;;53.08;8.07;;;;;;;13.14;100.00;97305.28;5002756;28;20053;-56
2022/04/25 10:34:47;;;;;;;83.60;9.82;;;;;;;12.36;100.00;97312.66;5001312;28;20527;-56
2022/04/25 10:37:31;;;;;;;62.13;8.23;;;;;;;12.88;100.00;97307.75;5000711;28;20096;-57
2022/04/25 10:39:57;;;;;;;71.57;8.55;;;;;;;13.19;100.00;97308.44;5000699;28;20018;-58
2022/04/25 10:45:07;;;;;;;63.45;7.68;;;;;;;13.68;100.00;97321.06;5003745;28;20052;-57
2022/04/25 10:47:32;;;;;;;75.57;8.15;;;;;;;13.61;100.00;97318.97;5000639;28;20041;-57
2022/04/25 10:49:57;;;;;;;68.53;8.18;;;;;;;14.02;100.00;97318.91;5000879;28;20025;-58
2022/04/25 10:52:32;;;;;;;52.53;7.40;;;;;;;13.24;100.00;97316.84;5000802;28;20038;-57
2022/04/25 10:55:13;;;;;;;88.15;9.57;;;;;;;13.28;100.00;97328.81;5001069;28;20080;-57
2022/04/25 10:58:07;;;;;;;66.35;8.57;;;;;;;13.20;100.00;97330.25;5002549;28;20772;-58
2022/04/25 11:00:41;;;;;;;60.60;7.70;;;;;;;13.27;100.00;97342.00;5000473;28;20037;-56
2022/04/25 11:03:16;;;;;;;81.50;9.23;;;;;;;13.01;100.00;97335.75;5001933;28;20479;-56
2022/04/25 11:05:55;;;;;;;64.18;8.38;;;;;;;13.00;100.00;97337.56;5000317;28;20118;-57
2022/04/25 11:08:20;;;;;;;51.08;7.63;;;;;;;13.17;100.00;97341.75;5001962;28;20117;-56
2022/04/25 11:10:47;;;;;;;56.70;7.60;;;;;;;13.57;100.00;97339.28;5001131;28;20516;-57
2022/04/25 11:13:14;;;;;;;80.40;8.63;;;;;;;13.53;100.00;97347.41;4992188;28;20026;-56
2022/04/25 11:15:46;;;;;;;67.25;8.35;;;;;;;13.35;100.00;97349.44;5005226;28;20110;-58
2022/04/25 11:18:34;;;;;;;53.90;8.63;;;;;;;13.42;100.00;97350.72;5005422;28;20026;-56
2022/04/25 11:21:07;;;;;;;78.32;8.93;;;;;;;13.28;100.00;97349.75;5002527;28;20828;-56
2022/04/25 11:23:46;;;;;;;65.63;8.52;;;;;;;13.71;100.00;97350.66;5003905;28;20142;-56
2022/04/25 11:26:23;;;;;;;63.25;8.15;;;;;;;13.62;100.00;97352.94;5005627;28;20403;-57
2022/04/25 11:28:55;;;;;;;55.15;7.63;;;;;;;13.54;100.00;97355.19;5005362;28;20083;-56
2022/04/25 11:31:30;;;;;;;59.28;7.40;;;;;;;13.37;100.00;97358.03;5006600;28;20045;-56
2022/04/25 11:34:02;;;;;;;55.70;6.47;;;;;;;13.85;100.00;97363.72;5004865;28;20064;-58
2022/04/25 11:36:29;;;;;;;81.50;8.57;;;;;;;13.34;100.00;97366.91;5004693;28;20034;-56
2022/04/25 11:41:40;;;;;;;60.63;7.25;;;;;;;13.85;100.00;97371.56;5003287;28;20044;-57
2022/04/25 11:44:06;;;;;;;59.85;7.28;;;;;;;13.20;100.00;97367.75;5005975;28;20130;-58
2022/04/25 11:46:34;;;;;;;66.75;7.45;;;;;;;14.21;100.00;97364.88;5004473;28;20479;-58